createdAt,value
2022-11-24T00:04:02.372Z,78.95
2022-11-24T00:09:02.811Z,78.30
2022-11-24T00:14:02.494Z,77.84
2022-11-24T00:19:04.030Z,79.94
2022-11-24T00:24:03.378Z,80.29
2022-11-24T00:29:04.782Z,79.27
2022-11-24T00:34:07.185Z,80.23
2022-11-24T00:39:10.332Z,78.37
2022-11-24T00:44:09.558Z,79.60
2022-11-24T00:49:08.575Z,79.57
2022-11-24T00:54:07.587Z,80.07
2022-11-24T00:59:06.575Z,81.17
2022-11-24T01:04:06.139Z,79.13
2022-11-24T01:09:04.938Z,79.70
2022-11-24T01:14:03.919Z,79.01
2022-11-24T01:19:03.979Z,79.13
2022-11-24T01:24:03.037Z,78.89
2022-11-24T01:29:01.953Z,76.93
2022-11-24T01:34:01.045Z,78.35
2022-11-24T01:39:00.122Z,78.25
2022-11-24T01:43:59.162Z,78.72
2022-11-24T01:49:18.257Z,77.47
2022-11-24T01:54:32.308Z,79.38
2022-11-24T01:59:31.737Z,78.57
2022-11-24T02:04:34.411Z,78.58
2022-11-24T02:09:45.860Z,76.95
2022-11-24T02:14:46.096Z,78.12
2022-11-24T02:19:59.940Z,78.38
2022-11-24T02:25:23.885Z,78.26
2022-11-24T02:30:23.515Z,77.54
2022-11-24T02:35:22.389Z,78.19
2022-11-24T02:40:25.610Z,78.53
2022-11-24T02:45:26.108Z,77.09
2022-11-24T02:50:25.161Z,77.01
2022-11-24T02:55:24.132Z,77.97
2022-11-24T03:00:23.177Z,76.60
2022-11-24T03:05:22.187Z,77.17
2022-11-24T03:10:21.092Z,77.19
2022-11-24T03:15:19.970Z,76.86
2022-11-24T03:20:18.905Z,79.36
2022-11-24T03:25:18.170Z,78.98
2022-11-24T03:30:17.288Z,79.30
2022-11-24T03:35:16.121Z,78.26
2022-11-24T03:40:15.221Z,78.52
2022-11-24T03:45:45.524Z,79.76
2022-11-24T03:50:33.731Z,81.10
2022-11-24T03:55:32.708Z,80.33
2022-11-24T04:00:31.869Z,80.57
2022-11-24T04:05:30.771Z,80.05
2022-11-24T04:10:30.487Z,79.89
2022-11-24T04:15:29.301Z,77.92
2022-11-24T04:20:28.275Z,78.45
2022-11-24T04:25:28.074Z,78.89
2022-11-24T04:30:28.630Z,78.96
2022-11-24T04:35:28.320Z,78.44
2022-11-24T04:40:27.270Z,78.34
2022-11-24T04:45:26.206Z,78.37
2022-11-24T04:50:25.453Z,77.94
2022-11-24T04:55:24.349Z,78.14
2022-11-24T05:00:23.444Z,77.53
2022-11-24T05:05:22.270Z,76.82
2022-11-24T05:10:36.450Z,76.48
2022-11-24T05:15:37.710Z,76.69
2022-11-24T05:20:36.691Z,78.23
2022-11-24T05:25:36.385Z,76.47
2022-11-24T05:30:36.080Z,90.38
2022-11-24T05:35:36.409Z,65.73
2022-11-24T05:40:35.167Z,60.02
2022-11-24T05:45:34.006Z,57.56
2022-11-24T05:50:33.266Z,65.25
2022-11-24T05:55:32.739Z,69.83
2022-11-24T06:00:33.132Z,72.99
2022-11-24T06:05:32.774Z,72.86
2022-11-24T06:10:31.670Z,76.46
2022-11-24T06:15:30.583Z,74.94
2022-11-24T06:20:32.638Z,75.72
2022-11-24T06:25:31.786Z,75.09
2022-11-24T06:30:30.488Z,74.41
2022-11-24T06:35:29.399Z,75.90
2022-11-24T06:40:28.367Z,75.34
2022-11-24T06:45:27.248Z,74.87
2022-11-24T06:50:32.089Z,75.85
2022-11-24T06:55:32.331Z,76.64
2022-11-24T07:00:34.243Z,76.29
2022-11-24T07:05:33.125Z,76.18
2022-11-24T07:10:32.085Z,78.07
2022-11-24T07:15:31.299Z,77.60
2022-11-24T07:20:30.596Z,77.48
2022-11-24T07:25:29.625Z,77.71
2022-11-24T07:30:28.540Z,78.05
2022-11-24T07:35:27.788Z,77.30
2022-11-24T07:40:27.602Z,77.87
2022-11-24T07:45:26.464Z,77.92
2022-11-24T07:50:25.792Z,79.69
2022-11-24T07:55:24.627Z,78.72
2022-11-24T08:00:23.799Z,79.55
2022-11-24T08:05:22.788Z,80.24
2022-11-24T08:10:21.727Z,80.05
2022-11-24T08:15:21.042Z,79.49
2022-11-24T08:20:20.149Z,79.40
2022-11-24T08:25:19.528Z,80.79
2022-11-24T08:30:20.073Z,79.54
2022-11-24T08:35:19.190Z,79.01
2022-11-24T08:40:18.301Z,79.50
2022-11-24T08:45:22.477Z,79.77
2022-11-24T08:50:23.677Z,81.08
2022-11-24T08:55:22.741Z,80.47
2022-11-24T09:00:24.030Z,81.18
2022-11-24T09:05:50.667Z,80.81
2022-11-24T09:10:42.069Z,81.05
2022-11-24T09:15:40.882Z,80.89
2022-11-24T09:20:40.835Z,80.32
2022-11-24T09:25:39.553Z,80.74
2022-11-24T09:30:38.845Z,80.38
2022-11-24T09:35:38.752Z,80.72
2022-11-24T09:40:37.775Z,80.45
2022-11-24T09:46:05.389Z,80.76
2022-11-24T09:51:05.752Z,81.76
2022-11-24T09:56:24.949Z,80.48
2022-11-24T10:01:29.711Z,81.38
2022-11-24T10:06:45.336Z,81.97
2022-11-24T10:12:14.858Z,81.54
2022-11-24T10:17:47.921Z,80.65
2022-11-24T10:23:02.300Z,80.87
2022-11-24T10:28:09.914Z,81.65
2022-11-24T10:33:18.884Z,80.99
2022-11-24T10:38:37.488Z,81.27
2022-11-24T10:43:37.263Z,80.35
2022-11-24T10:48:51.315Z,80.16
2022-11-24T10:53:55.523Z,79.71
2022-11-24T10:58:54.453Z,80.20
2022-11-24T11:03:56.424Z,80.00
2022-11-24T11:09:07.830Z,79.65
2022-11-24T11:14:09.138Z,81.72
2022-11-24T11:25:02.536Z,83.23
2022-11-24T11:35:40.458Z,81.39
2022-11-24T11:40:42.960Z,82.32
2022-11-24T11:45:46.111Z,81.10
2022-11-24T11:51:22.963Z,81.41
2022-11-24T11:56:33.030Z,82.21
2022-11-24T12:01:47.078Z,81.24
2022-11-24T12:06:48.588Z,82.14
2022-11-24T12:11:59.816Z,82.26
2022-11-24T12:16:58.703Z,83.51
2022-11-24T12:22:10.094Z,83.56
2022-11-24T12:27:24.154Z,83.54
2022-11-24T12:32:41.849Z,83.13
2022-11-24T12:37:43.669Z,83.05
2022-11-24T12:42:51.753Z,83.25
2022-11-24T12:48:00.510Z,83.26
2022-11-24T12:53:24.262Z,82.76
2022-11-24T12:58:37.279Z,81.72
2022-11-24T13:03:42.585Z,83.24
2022-11-24T13:08:41.812Z,83.06
2022-11-24T13:14:03.986Z,82.47
2022-11-24T13:19:34.191Z,83.25
2022-11-24T13:24:37.050Z,83.46
2022-11-24T13:29:46.831Z,82.83
2022-11-24T13:34:45.868Z,82.96
2022-11-24T13:39:51.335Z,83.25
2022-11-24T13:44:57.413Z,83.08
2022-11-24T13:49:57.254Z,83.24
2022-11-24T13:54:58.134Z,82.36
2022-11-24T14:00:02.137Z,82.79
2022-11-24T14:05:03.587Z,82.95
2022-11-24T14:10:02.295Z,82.96
2022-11-24T14:15:36.886Z,83.65
2022-11-24T14:20:35.806Z,83.48
2022-11-24T14:25:35.677Z,83.89
2022-11-24T14:30:34.493Z,84.69
2022-11-24T14:35:35.059Z,85.10
2022-11-24T14:40:43.120Z,84.40
2022-11-24T14:45:55.354Z,84.13
2022-11-24T14:51:04.418Z,84.34
2022-11-24T14:56:21.915Z,83.93
2022-11-24T15:01:30.292Z,83.99
2022-11-24T15:06:29.229Z,83.31
2022-11-24T15:11:32.165Z,83.34
2022-11-24T15:16:31.756Z,83.78
2022-11-24T15:21:32.087Z,84.00
2022-11-24T15:26:35.486Z,84.06
2022-11-24T15:31:40.644Z,84.18
2022-11-24T15:36:39.425Z,84.48
2022-11-24T15:41:38.463Z,84.42
2022-11-24T15:46:40.296Z,85.38
2022-11-24T15:51:42.662Z,85.04
2022-11-24T15:56:41.982Z,84.62
2022-11-24T16:01:42.754Z,84.77
2022-11-24T16:06:41.594Z,83.30
2022-11-24T16:11:40.320Z,84.65
2022-11-24T16:16:40.872Z,83.88
2022-11-24T16:21:39.815Z,84.60
2022-11-24T16:26:38.706Z,84.58
2022-11-24T16:31:37.976Z,85.39
2022-11-24T16:36:36.674Z,84.90
2022-11-24T16:41:35.978Z,84.04
2022-11-24T16:46:34.930Z,84.83
2022-11-24T16:51:35.087Z,84.91
2022-11-24T16:56:34.323Z,83.58
2022-11-24T17:01:33.430Z,83.86
2022-11-24T17:06:33.471Z,84.82
2022-11-24T17:11:32.367Z,84.23
2022-11-24T17:16:31.229Z,83.81
2022-11-24T17:21:30.316Z,83.44
2022-11-24T17:26:29.411Z,84.74
2022-11-24T17:31:28.205Z,83.78
2022-11-24T17:36:27.696Z,84.38
2022-11-24T17:41:26.857Z,83.94
2022-11-24T17:46:27.695Z,83.78
2022-11-24T17:51:27.268Z,85.01
2022-11-24T17:56:27.930Z,84.66
2022-11-24T18:01:31.565Z,84.89
2022-11-24T18:06:30.518Z,83.42
2022-11-24T18:11:32.167Z,83.32
2022-11-24T18:16:33.688Z,84.24
2022-11-24T18:21:39.613Z,83.74
2022-11-24T18:26:42.927Z,84.27
2022-11-24T18:31:42.209Z,84.89
2022-11-24T18:36:41.230Z,82.70
2022-11-24T18:41:40.348Z,83.88
2022-11-24T18:46:39.479Z,84.77
2022-11-24T18:51:38.341Z,84.86
2022-11-24T18:56:37.428Z,84.04
2022-11-24T19:01:37.917Z,84.29
2022-11-24T19:06:37.930Z,83.80
2022-11-24T19:11:39.324Z,83.03
2022-11-24T19:16:38.440Z,82.47
2022-11-24T19:21:38.939Z,84.70
2022-11-24T19:26:38.145Z,84.57
2022-11-24T19:31:41.010Z,84.62
2022-11-24T19:36:40.811Z,83.04
2022-11-24T19:41:39.855Z,83.12
2022-11-24T19:46:39.865Z,82.91
2022-11-24T19:51:39.995Z,84.01
2022-11-24T19:56:38.835Z,83.66
2022-11-24T20:01:40.825Z,83.35
2022-11-24T20:06:42.492Z,82.29
2022-11-24T20:11:41.714Z,82.83
2022-11-24T20:16:41.091Z,83.60
2022-11-24T20:21:41.699Z,83.10
2022-11-24T20:26:44.050Z,82.49
2022-11-24T20:31:46.096Z,83.56
2022-11-24T20:36:48.693Z,84.03
2022-11-24T20:41:47.434Z,84.94
2022-11-24T20:46:48.138Z,84.81
2022-11-24T20:51:54.351Z,84.82
2022-11-24T20:56:53.129Z,84.61
2022-11-24T21:01:55.169Z,85.03
2022-11-24T21:06:54.839Z,83.58
2022-11-24T21:11:54.763Z,84.04
2022-11-24T21:16:53.592Z,84.57
2022-11-24T21:21:52.720Z,83.92
2022-11-24T21:26:52.933Z,83.80
2022-11-24T21:31:52.132Z,83.58
2022-11-24T21:36:51.016Z,83.61
2022-11-24T21:41:50.030Z,82.73
2022-11-24T21:46:54.302Z,83.67
2022-11-24T21:51:56.034Z,84.27
2022-11-24T21:56:55.625Z,84.21
2022-11-24T22:01:54.529Z,83.50
2022-11-24T22:06:53.718Z,82.48
2022-11-24T22:11:53.142Z,84.16
2022-11-24T22:16:51.919Z,83.92
2022-11-24T22:21:50.692Z,83.74
2022-11-24T22:26:49.406Z,84.12
2022-11-24T22:31:48.227Z,83.80
2022-11-24T22:36:46.981Z,84.17
2022-11-24T22:41:45.762Z,83.80
2022-11-24T22:46:44.608Z,83.37
2022-11-24T22:51:43.314Z,83.31
2022-11-24T22:56:42.073Z,83.73
2022-11-24T23:01:40.849Z,83.40
2022-11-24T23:06:39.695Z,83.19
2022-11-24T23:11:40.829Z,83.26
2022-11-24T23:16:40.003Z,83.65
2022-11-24T23:21:39.068Z,84.47
2022-11-24T23:26:40.048Z,83.09
2022-11-24T23:31:40.260Z,82.07
2022-11-24T23:36:39.205Z,81.72
2022-11-24T23:41:38.396Z,82.67
2022-11-24T23:46:37.407Z,81.94
2022-11-24T23:51:36.158Z,80.98
2022-11-24T23:56:34.998Z,81.38
